Scribner, Nebraska
Current Conditions -  °F | °C
As of 1:55 PM on Wednesday 26 Nov 2014 (Local Time) from KFET Reporting Station
Overcast Overcast  
Wind Chill: 15°   Ceiling: 1600
Heat Index: 28°   Visibility: 10mi
Dew Point: 22°   Wind: 17mph
Humidity: 80%   Direction: 330°NNW
Pressure: 30.2"   Gusts: 35mph
Location:  41.67°N, 96.67°W
Report Text: KFET 261955Z AUTO 33015G30KT 10SM OVC016 M02/M06 A3020 RMK AO2 T10251056
Loading
Personal Weather Stations






























Interactive Weather Map New forecast layout! Learn more

10-Day Weather Forecast

Advertisements
Track Severe Weather on mobile